createdAt,value
2022-12-03T00:00:35.712Z,17.45
2022-12-03T00:03:02.308Z,16.02
2022-12-03T00:05:28.938Z,15.73
2022-12-03T00:07:55.528Z,17.55
2022-12-03T00:10:22.102Z,16.25
2022-12-03T00:12:48.595Z,18.38
2022-12-03T00:15:15.220Z,15.70
2022-12-03T00:17:41.716Z,16.00
2022-12-03T00:20:09.379Z,16.42
2022-12-03T00:22:35.877Z,16.75
2022-12-03T00:25:02.412Z,18.73
2022-12-03T00:27:28.873Z,18.88
2022-12-03T00:29:55.376Z,19.63
2022-12-03T00:32:21.895Z,19.17
2022-12-03T00:34:48.430Z,19.23
2022-12-03T00:37:15.021Z,19.92
2022-12-03T00:39:41.497Z,20.02
2022-12-03T00:42:08.015Z,21.08
2022-12-03T00:44:34.503Z,18.98
2022-12-03T00:47:01.090Z,20.02
2022-12-03T00:49:27.637Z,20.70
2022-12-03T00:51:54.151Z,18.95
2022-12-03T00:54:20.653Z,20.05
2022-12-03T00:56:47.185Z,17.45
2022-12-03T00:59:13.772Z,20.48
2022-12-03T01:01:40.296Z,20.83
2022-12-03T01:04:06.838Z,19.10
2022-12-03T01:10:14.714Z,19.23
2022-12-03T01:12:41.244Z,19.50
2022-12-03T01:15:08.293Z,19.35
2022-12-03T01:17:34.890Z,20.23
2022-12-03T01:20:01.748Z,20.33
2022-12-03T01:22:28.297Z,18.33
2022-12-03T01:24:55.137Z,19.05
2022-12-03T01:27:21.895Z,18.58
2022-12-03T01:29:48.512Z,19.45
2022-12-03T01:32:19.141Z,19.40
2022-12-03T01:34:51.335Z,19.35
2022-12-03T01:37:19.372Z,18.50
2022-12-03T01:39:46.193Z,20.45
2022-12-03T01:42:18.374Z,18.90
2022-12-03T01:44:45.106Z,19.23
2022-12-03T01:47:18.419Z,20.45
2022-12-03T01:49:53.923Z,18.67
2022-12-03T01:52:23.375Z,18.85
2022-12-03T01:55:00.988Z,18.55
2022-12-03T01:57:36.979Z,19.95
2022-12-03T02:00:04.030Z,18.05
2022-12-03T02:02:31.280Z,18.88
2022-12-03T02:04:58.067Z,19.50
2022-12-03T02:07:33.094Z,20.48
2022-12-03T02:12:38.679Z,18.58
2022-12-03T02:15:07.071Z,19.23
2022-12-03T02:17:33.837Z,19.00
2022-12-03T02:20:01.720Z,19.23
2022-12-03T02:22:37.194Z,19.77
2022-12-03T02:25:10.175Z,18.00
2022-12-03T02:27:36.896Z,18.42
2022-12-03T02:30:05.067Z,19.02
2022-12-03T02:32:31.653Z,19.27
2022-12-03T02:34:58.233Z,18.63
2022-12-03T02:37:35.627Z,20.85
2022-12-03T02:40:11.170Z,20.00
2022-12-03T02:42:37.854Z,19.70
2022-12-03T02:45:29.276Z,20.92
2022-12-03T02:48:01.483Z,19.92
2022-12-03T02:50:37.358Z,19.40
2022-12-03T02:53:08.179Z,18.88
2022-12-03T02:55:37.285Z,19.67
2022-12-03T02:58:05.123Z,19.80
2022-12-03T03:00:32.674Z,20.98
2022-12-03T03:03:00.304Z,21.25
2022-12-03T03:05:27.142Z,20.30
2022-12-03T03:07:53.871Z,19.45
2022-12-03T03:10:23.216Z,19.55
2022-12-03T03:12:50.248Z,19.90
2022-12-03T03:15:16.767Z,19.33
2022-12-03T03:17:43.429Z,18.48
2022-12-03T03:20:10.597Z,20.63
2022-12-03T03:22:39.377Z,19.55
2022-12-03T03:25:07.929Z,20.73
2022-12-03T03:27:34.632Z,19.67
2022-12-03T03:30:01.215Z,19.92
2022-12-03T03:32:28.719Z,20.48
2022-12-03T03:34:56.098Z,19.60
2022-12-03T03:37:23.301Z,19.75
2022-12-03T03:39:49.923Z,21.02
2022-12-03T03:42:16.602Z,18.75
2022-12-03T03:44:43.212Z,18.95
2022-12-03T03:47:09.994Z,18.48
2022-12-03T03:49:36.714Z,19.88
2022-12-03T03:52:03.480Z,18.33
2022-12-03T03:54:30.662Z,18.67
2022-12-03T03:56:57.485Z,18.42
2022-12-03T03:59:24.070Z,20.35
2022-12-03T04:01:50.584Z,21.50
2022-12-03T04:04:20.086Z,20.33
2022-12-03T04:06:47.653Z,20.15
2022-12-03T04:09:14.181Z,20.25
2022-12-03T04:11:59.258Z,19.55
2022-12-03T04:14:25.740Z,20.70
2022-12-03T04:16:52.288Z,20.55
2022-12-03T04:19:18.877Z,19.70
2022-12-03T04:22:04.089Z,18.40
2022-12-03T04:24:30.570Z,19.02
2022-12-03T04:27:15.844Z,19.75
2022-12-03T04:29:42.345Z,16.35
2022-12-03T04:32:27.180Z,19.38
2022-12-03T04:35:12.051Z,18.48
2022-12-03T04:37:38.568Z,20.33
2022-12-03T04:40:25.851Z,20.75
2022-12-03T04:42:52.311Z,19.25
2022-12-03T04:45:18.768Z,19.20
2022-12-03T04:47:45.299Z,18.20
2022-12-03T04:50:11.802Z,20.17
2022-12-03T04:52:40.450Z,19.90
2022-12-03T04:55:07.342Z,20.75
2022-12-03T04:57:33.903Z,19.35
2022-12-03T05:00:00.387Z,18.67
2022-12-03T05:02:26.893Z,18.27
2022-12-03T05:04:53.797Z,18.08
2022-12-03T05:07:20.516Z,19.20
2022-12-03T05:09:47.041Z,19.80
2022-12-03T05:12:13.509Z,19.75
2022-12-03T05:14:40.105Z,18.92
2022-12-03T05:17:06.714Z,19.92
2022-12-03T05:19:56.323Z,19.33
2022-12-03T05:22:22.935Z,18.48
2022-12-03T05:24:49.454Z,19.58
2022-12-03T05:27:21.756Z,18.55
2022-12-03T05:29:50.121Z,18.60
2022-12-03T05:32:16.689Z,19.40
2022-12-03T05:34:43.163Z,19.70
2022-12-03T05:37:09.722Z,20.48
2022-12-03T05:39:36.234Z,17.95
2022-12-03T05:42:20.999Z,18.33
2022-12-03T05:44:47.629Z,18.88
2022-12-03T05:47:14.321Z,19.63
2022-12-03T05:49:40.944Z,19.27
2022-12-03T05:52:07.467Z,19.00
2022-12-03T05:54:33.967Z,19.17
2022-12-03T05:57:00.703Z,19.60
2022-12-03T05:59:27.350Z,19.70
2022-12-03T06:01:53.860Z,18.65
2022-12-03T06:04:20.361Z,19.30
2022-12-03T06:06:46.852Z,21.02
2022-12-03T06:09:13.321Z,20.40
2022-12-03T06:11:40.582Z,19.23
2022-12-03T06:14:07.063Z,19.52
2022-12-03T06:16:33.639Z,20.30
2022-12-03T06:19:00.270Z,18.73
2022-12-03T06:21:26.750Z,20.50
2022-12-03T06:23:53.226Z,19.52
2022-12-03T06:26:19.756Z,19.77
2022-12-03T06:28:47.683Z,18.55
2022-12-03T06:31:14.380Z,20.15
2022-12-03T06:33:40.897Z,20.65
2022-12-03T06:36:07.843Z,20.35
2022-12-03T06:38:34.321Z,20.30
2022-12-03T06:41:00.801Z,20.10
2022-12-03T06:43:27.334Z,21.20
2022-12-03T06:45:53.798Z,19.48
2022-12-03T06:48:20.318Z,19.73
2022-12-03T06:50:46.816Z,19.75
2022-12-03T06:53:13.321Z,21.45
2022-12-03T06:55:39.828Z,21.55
2022-12-03T06:58:06.330Z,20.08
2022-12-03T07:00:33.214Z,19.58
2022-12-03T07:02:59.765Z,20.33
2022-12-03T07:05:26.249Z,20.55
2022-12-03T07:07:55.313Z,20.98
2022-12-03T07:10:22.212Z,20.95
2022-12-03T07:12:48.737Z,21.63
2022-12-03T07:15:15.208Z,21.38
2022-12-03T07:17:41.723Z,20.65
2022-12-03T07:20:09.026Z,20.55
2022-12-03T07:22:35.596Z,20.33
2022-12-03T07:25:02.144Z,21.15
2022-12-03T07:27:28.697Z,21.50
2022-12-03T07:29:55.203Z,23.80
2022-12-03T07:32:21.727Z,19.15
2022-12-03T07:34:48.227Z,21.90
2022-12-03T07:37:18.612Z,20.27
2022-12-03T07:39:48.032Z,21.95
2022-12-03T07:42:14.534Z,21.42
2022-12-03T07:44:41.063Z,20.05
2022-12-03T07:47:07.622Z,20.88
2022-12-03T07:49:34.201Z,20.40
2022-12-03T07:52:00.974Z,20.92
2022-12-03T07:54:27.516Z,20.95
2022-12-03T07:56:58.100Z,21.33
2022-12-03T07:59:27.839Z,20.52
2022-12-03T08:01:54.454Z,22.15
2022-12-03T08:04:21.585Z,21.38
2022-12-03T08:06:48.639Z,23.00
2022-12-03T08:09:16.392Z,21.95
2022-12-03T08:11:48.054Z,22.13
2022-12-03T08:14:16.888Z,23.45
2022-12-03T08:16:45.101Z,23.27
2022-12-03T08:19:15.721Z,22.15
2022-12-03T08:21:42.802Z,23.45
2022-12-03T08:24:19.956Z,23.73
2022-12-03T08:26:47.895Z,23.35
2022-12-03T08:29:17.252Z,22.50
2022-12-03T08:31:52.286Z,22.75
2022-12-03T08:34:27.688Z,22.42
2022-12-03T08:37:02.656Z,21.73
2022-12-03T08:39:34.532Z,21.95
2022-12-03T08:42:35.898Z,21.80
2022-12-03T08:45:31.959Z,21.27
2022-12-03T08:48:00.726Z,24.02
2022-12-03T08:50:38.998Z,21.15
2022-12-03T08:53:14.267Z,21.92
2022-12-03T08:55:48.807Z,20.77
2022-12-03T08:58:28.490Z,21.80
2022-12-03T09:01:27.510Z,20.65
2022-12-03T09:03:55.016Z,22.23
2022-12-03T09:06:22.274Z,21.33
2022-12-03T09:08:48.812Z,21.15
2022-12-03T09:11:15.382Z,21.27
2022-12-03T09:13:41.949Z,21.48
2022-12-03T09:16:08.523Z,20.33
2022-12-03T09:18:35.107Z,19.30
2022-12-03T09:21:01.637Z,18.77
2022-12-03T09:23:28.135Z,20.58
2022-12-03T09:25:54.669Z,20.95
2022-12-03T09:28:21.253Z,20.48
2022-12-03T09:30:47.803Z,18.58
2022-12-03T09:33:14.350Z,20.05
2022-12-03T09:35:40.844Z,19.88
2022-12-03T09:38:07.375Z,20.88
2022-12-03T09:40:34.316Z,19.77
2022-12-03T09:43:00.917Z,20.33
2022-12-03T09:45:27.410Z,21.15
2022-12-03T09:47:54.950Z,20.05
2022-12-03T09:50:26.857Z,19.60
2022-12-03T09:52:57.289Z,21.25
2022-12-03T09:55:27.027Z,19.90
2022-12-03T09:57:54.403Z,21.40
2022-12-03T10:00:24.077Z,21.70
2022-12-03T10:02:52.479Z,19.70
2022-12-03T10:05:20.200Z,20.65
2022-12-03T10:07:47.582Z,19.63
2022-12-03T10:10:20.339Z,21.33
2022-12-03T10:12:47.292Z,20.80
2022-12-03T10:15:16.098Z,19.25
2022-12-03T10:17:42.637Z,21.15
2022-12-03T10:20:15.347Z,20.13
2022-12-03T10:22:41.982Z,20.00
2022-12-03T10:25:15.957Z,20.40
2022-12-03T10:27:42.813Z,21.42
2022-12-03T10:30:20.582Z,20.33
2022-12-03T10:32:49.630Z,21.25
2022-12-03T10:35:16.108Z,20.30
2022-12-03T10:37:59.343Z,21.83
2022-12-03T10:40:31.567Z,22.88
2022-12-03T10:43:19.917Z,21.75
2022-12-03T10:45:49.571Z,21.20
2022-12-03T10:48:21.624Z,20.58
2022-12-03T10:50:49.454Z,22.05
2022-12-03T10:53:16.467Z,21.95
2022-12-03T10:55:44.364Z,21.08
2022-12-03T10:58:18.781Z,22.45
2022-12-03T11:00:45.299Z,21.60
2022-12-03T11:03:20.360Z,19.75
2022-12-03T11:08:22.452Z,21.30
2022-12-03T11:10:58.759Z,22.73
2022-12-03T11:13:34.387Z,23.17
2022-12-03T11:16:02.560Z,22.13
2022-12-03T11:18:38.157Z,24.13
2022-12-03T11:21:07.323Z,24.30
2022-12-03T11:23:46.017Z,22.27
2022-12-03T11:26:19.898Z,24.25
2022-12-03T11:28:46.631Z,22.05
2022-12-03T11:31:42.220Z,23.48
2022-12-03T11:34:18.011Z,24.13
2022-12-03T11:37:09.476Z,25.02
2022-12-03T11:40:22.335Z,24.58
2022-12-03T11:42:49.182Z,27.02
2022-12-03T11:45:18.687Z,26.70
2022-12-03T11:48:02.687Z,26.77
2022-12-03T11:50:39.858Z,26.33
2022-12-03T11:53:20.566Z,26.70
2022-12-03T11:55:51.909Z,25.73
2022-12-03T11:58:30.060Z,26.63
2022-12-03T12:01:01.259Z,24.60
2022-12-03T12:03:29.074Z,26.75
2022-12-03T12:06:06.898Z,24.10
2022-12-03T12:08:35.412Z,26.90
2022-12-03T12:11:02.468Z,25.58
2022-12-03T12:13:31.730Z,27.38
2022-12-03T12:15:59.540Z,27.45
2022-12-03T12:18:38.276Z,25.65
2022-12-03T12:21:42.948Z,26.48
2022-12-03T12:24:31.056Z,26.27
2022-12-03T12:26:59.456Z,27.50
2022-12-03T12:29:26.091Z,26.40
2022-12-03T12:31:58.296Z,28.55
2022-12-03T12:34:25.495Z,25.92
2022-12-03T12:36:52.388Z,24.13
2022-12-03T12:39:18.991Z,24.85
2022-12-03T12:41:49.238Z,26.13
2022-12-03T12:44:15.811Z,24.92
2022-12-03T12:46:48.300Z,26.85
2022-12-03T12:49:15.823Z,25.85
2022-12-03T12:51:46.373Z,27.60
2022-12-03T12:54:15.023Z,26.48
2022-12-03T12:56:44.452Z,28.23
2022-12-03T12:59:10.867Z,30.13
2022-12-03T13:01:37.571Z,29.10
2022-12-03T13:04:11.753Z,27.73
2022-12-03T13:06:38.248Z,29.30
2022-12-03T13:09:12.739Z,30.50
2022-12-03T13:11:42.265Z,27.65
2022-12-03T13:14:23.014Z,28.48
2022-12-03T13:16:51.800Z,28.67
2022-12-03T13:19:25.281Z,27.58
2022-12-03T13:22:00.996Z,30.08
2022-12-03T13:24:36.892Z,29.23
2022-12-03T13:27:22.436Z,26.13
2022-12-03T13:32:31.007Z,26.80
2022-12-03T13:35:09.885Z,29.15
2022-12-03T13:37:37.138Z,29.00
2022-12-03T13:40:24.433Z,30.60
2022-12-03T13:42:52.561Z,30.75
2022-12-03T13:45:18.991Z,27.33
2022-12-03T13:48:00.152Z,32.10
2022-12-03T13:50:29.627Z,29.48
2022-12-03T13:52:56.459Z,29.30
2022-12-03T13:55:26.831Z,28.67
2022-12-03T13:57:53.969Z,29.60
2022-12-03T14:00:20.513Z,26.92
2022-12-03T14:02:47.027Z,28.33
2022-12-03T14:05:14.275Z,29.85
2022-12-03T14:07:41.069Z,27.92
2022-12-03T14:10:08.895Z,29.25
2022-12-03T14:12:35.728Z,28.25
2022-12-03T14:15:04.222Z,26.50
2022-12-03T14:17:31.653Z,27.98
2022-12-03T14:20:01.250Z,27.23
2022-12-03T14:22:28.278Z,25.63
2022-12-03T14:24:55.045Z,25.20
2022-12-03T14:27:22.668Z,27.17
2022-12-03T14:29:49.161Z,23.77
2022-12-03T14:32:16.272Z,26.05
2022-12-03T14:34:43.031Z,24.05
2022-12-03T14:37:09.557Z,23.25
2022-12-03T14:39:37.122Z,24.75
2022-12-03T14:42:17.347Z,25.40
2022-12-03T14:44:49.619Z,22.73
2022-12-03T14:47:18.711Z,21.95
2022-12-03T14:49:46.080Z,23.77
2022-12-03T14:52:13.057Z,21.38
2022-12-03T14:54:42.517Z,20.23
2022-12-03T14:57:11.442Z,19.55
2022-12-03T14:59:38.420Z,22.02
2022-12-03T15:02:05.593Z,19.23
2022-12-03T15:04:32.268Z,21.45
2022-12-03T15:06:58.880Z,19.65
2022-12-03T15:09:25.544Z,22.98
2022-12-03T15:11:52.343Z,19.48
2022-12-03T15:14:19.166Z,19.65
2022-12-03T15:16:46.112Z,16.73
2022-12-03T15:19:12.929Z,17.95
2022-12-03T15:21:39.476Z,15.68
2022-12-03T15:24:06.647Z,18.25
2022-12-03T15:26:33.362Z,17.40
2022-12-03T15:29:00.365Z,18.08
2022-12-03T15:31:27.014Z,16.42
2022-12-03T15:33:53.593Z,17.02
2022-12-03T15:36:20.104Z,15.40
2022-12-03T15:38:46.725Z,16.13
2022-12-03T15:41:24.487Z,17.17
2022-12-03T15:43:52.443Z,17.67
2022-12-03T15:46:22.439Z,18.23
2022-12-03T15:48:49.100Z,19.15
2022-12-03T15:51:15.848Z,18.40
2022-12-03T15:53:42.332Z,17.00
2022-12-03T15:56:09.121Z,17.15
2022-12-03T15:58:35.684Z,18.20
2022-12-03T16:01:02.232Z,17.15
2022-12-03T16:03:28.916Z,19.25
2022-12-03T16:05:55.493Z,18.00
2022-12-03T16:08:22.169Z,18.92
2022-12-03T16:10:48.765Z,18.75
2022-12-03T16:13:15.282Z,18.48
2022-12-03T16:15:41.981Z,17.10
2022-12-03T16:18:08.601Z,18.45
2022-12-03T16:20:35.459Z,17.92
2022-12-03T16:23:01.930Z,22.05
2022-12-03T16:25:28.506Z,20.40
2022-12-03T16:27:56.236Z,23.65
2022-12-03T16:30:26.711Z,21.55
2022-12-03T16:32:53.269Z,20.67
2022-12-03T16:35:19.738Z,18.98
2022-12-03T16:37:46.244Z,19.63
2022-12-03T16:40:12.778Z,20.00
2022-12-03T16:42:39.616Z,22.85
2022-12-03T16:45:09.606Z,21.00
2022-12-03T16:47:36.346Z,20.00
2022-12-03T16:50:04.548Z,21.10
2022-12-03T16:52:31.054Z,20.80
2022-12-03T16:54:57.604Z,20.48
2022-12-03T16:57:27.571Z,21.33
2022-12-03T17:00:00.087Z,21.85
2022-12-03T17:02:27.599Z,25.77
2022-12-03T17:04:54.336Z,27.23
2022-12-03T17:07:20.851Z,30.50
2022-12-03T17:09:47.390Z,28.20
2022-12-03T17:12:13.922Z,27.88
2022-12-03T17:14:40.435Z,25.85
2022-12-03T17:17:09.261Z,26.58
2022-12-03T17:19:35.797Z,29.48
2022-12-03T17:22:02.257Z,28.90
2022-12-03T17:24:28.971Z,26.60
2022-12-03T17:26:55.548Z,31.25
2022-12-03T17:29:22.107Z,27.65
2022-12-03T17:31:48.677Z,25.40
2022-12-03T17:34:15.297Z,26.23
2022-12-03T17:36:41.993Z,26.50
2022-12-03T17:39:08.510Z,25.27
2022-12-03T17:41:35.051Z,25.70
2022-12-03T17:44:05.958Z,23.63
2022-12-03T17:46:35.655Z,25.45
2022-12-03T17:49:02.200Z,27.27
2022-12-03T17:51:28.689Z,27.40
2022-12-03T17:53:55.190Z,24.67
2022-12-03T17:56:21.682Z,24.98
2022-12-03T17:58:48.187Z,23.20
2022-12-03T18:01:14.695Z,24.88
2022-12-03T18:03:41.425Z,22.58
2022-12-03T18:06:08.248Z,22.60
2022-12-03T18:08:34.760Z,23.60
2022-12-03T18:11:01.271Z,21.42
2022-12-03T18:13:28.166Z,21.48
2022-12-03T18:15:54.843Z,21.13
2022-12-03T18:18:21.495Z,20.48
2022-12-03T18:20:48.014Z,21.75
2022-12-03T18:23:14.637Z,19.92
2022-12-03T18:25:41.801Z,20.20
2022-12-03T18:28:08.338Z,19.60
2022-12-03T18:30:34.924Z,20.30
2022-12-03T18:33:01.440Z,21.60
2022-12-03T18:35:28.169Z,20.27
2022-12-03T18:37:54.700Z,20.55
2022-12-03T18:40:23.279Z,19.92
2022-12-03T18:42:49.968Z,20.85
2022-12-03T18:45:16.757Z,20.10
2022-12-03T18:47:43.630Z,21.35
2022-12-03T18:50:10.973Z,21.73
2022-12-03T18:52:37.727Z,22.40
2022-12-03T18:55:05.453Z,23.67
2022-12-03T18:57:32.000Z,23.48
2022-12-03T18:59:58.804Z,22.90
2022-12-03T19:03:01.154Z,24.15
2022-12-03T19:05:11.781Z,24.63
2022-12-03T19:07:38.398Z,25.42
2022-12-03T19:10:05.373Z,25.90
2022-12-03T19:12:33.149Z,24.80
2022-12-03T19:14:59.712Z,24.30
2022-12-03T19:17:27.335Z,25.27
2022-12-03T19:19:54.751Z,24.58
2022-12-03T19:22:21.679Z,24.85
2022-12-03T19:24:48.233Z,26.75
2022-12-03T19:27:15.307Z,25.80
2022-12-03T19:29:42.220Z,27.05
2022-12-03T19:32:08.989Z,25.77
2022-12-03T19:34:35.827Z,25.73
2022-12-03T19:37:02.307Z,28.20
2022-12-03T19:39:28.774Z,25.45
2022-12-03T19:41:55.299Z,28.10
2022-12-03T19:44:21.792Z,26.20
2022-12-03T19:46:49.566Z,29.15
2022-12-03T19:49:20.937Z,26.35
2022-12-03T19:51:47.741Z,27.90
2022-12-03T19:54:14.754Z,30.65
2022-12-03T19:56:41.329Z,27.40
2022-12-03T19:59:08.075Z,26.95
2022-12-03T20:01:36.133Z,28.02
2022-12-03T20:04:03.455Z,28.25
2022-12-03T20:06:32.125Z,26.98
2022-12-03T20:09:01.645Z,28.10
2022-12-03T20:11:30.787Z,26.58
2022-12-03T20:13:59.615Z,27.10
2022-12-03T20:16:26.557Z,28.08
2022-12-03T20:18:57.858Z,25.60
2022-12-03T20:21:24.557Z,27.20
2022-12-03T20:23:51.109Z,26.55
2022-12-03T20:26:19.169Z,29.92
2022-12-03T20:28:47.989Z,26.85
2022-12-03T20:31:17.002Z,28.15
2022-12-03T20:33:46.105Z,29.42
2022-12-03T20:36:14.692Z,27.23
2022-12-03T20:38:41.331Z,28.45
2022-12-03T20:41:10.605Z,29.77
2022-12-03T20:43:37.552Z,28.95
2022-12-03T20:46:11.889Z,29.27
2022-12-03T20:48:38.901Z,28.92
2022-12-03T20:51:13.398Z,30.23
2022-12-03T20:53:40.317Z,29.33
2022-12-03T20:56:07.773Z,31.20
2022-12-03T20:58:34.855Z,26.80
2022-12-03T21:01:15.698Z,26.58
2022-12-03T21:03:42.708Z,28.08
2022-12-03T21:06:10.318Z,26.92
2022-12-03T21:08:41.570Z,28.95
2022-12-03T21:11:13.286Z,28.83
2022-12-03T21:13:43.820Z,28.73
2022-12-03T21:16:15.924Z,35.75
2022-12-03T21:18:42.861Z,28.85
2022-12-03T21:21:11.682Z,29.40
2022-12-03T21:23:38.247Z,27.05
2022-12-03T21:26:17.160Z,28.45
2022-12-03T21:28:45.598Z,28.55
2022-12-03T21:31:17.415Z,28.35
2022-12-03T21:33:44.206Z,28.48
2022-12-03T21:36:11.635Z,29.02
2022-12-03T21:38:38.163Z,27.58
2022-12-03T21:41:05.435Z,27.13
2022-12-03T21:43:32.497Z,27.05
2022-12-03T21:45:59.064Z,28.95
2022-12-03T21:48:28.351Z,26.77
2022-12-03T21:50:59.474Z,27.95
2022-12-03T21:53:26.165Z,27.80
2022-12-03T21:55:52.691Z,29.13
2022-12-03T21:58:19.228Z,25.40
2022-12-03T22:00:45.752Z,28.60
2022-12-03T22:03:12.345Z,27.55
2022-12-03T22:05:39.239Z,27.20
2022-12-03T22:08:07.248Z,27.25
2022-12-03T22:10:34.627Z,25.83
2022-12-03T22:13:01.150Z,28.08
2022-12-03T22:15:27.963Z,27.63
2022-12-03T22:17:54.435Z,26.13
2022-12-03T22:20:20.958Z,28.27
2022-12-03T22:22:47.468Z,28.23
2022-12-03T22:25:13.954Z,26.58
2022-12-03T22:27:40.466Z,29.45
2022-12-03T22:30:08.094Z,28.08
2022-12-03T22:32:34.752Z,28.30
2022-12-03T22:35:01.296Z,27.02
2022-12-03T22:37:27.786Z,27.55
2022-12-03T22:39:54.607Z,27.13
2022-12-03T22:42:21.232Z,27.65
2022-12-03T22:44:47.741Z,25.83
2022-12-03T22:47:14.209Z,27.30
2022-12-03T22:49:40.782Z,27.27
2022-12-03T22:52:07.997Z,26.70
2022-12-03T22:54:34.484Z,27.52
2022-12-03T22:57:01.053Z,25.35
2022-12-03T22:59:27.582Z,27.70
2022-12-03T23:01:54.099Z,26.30
2022-12-03T23:04:20.661Z,26.55
2022-12-03T23:06:47.311Z,28.63
2022-12-03T23:09:13.786Z,26.20
2022-12-03T23:11:40.315Z,27.67
2022-12-03T23:14:06.843Z,27.30
2022-12-03T23:16:34.134Z,27.17
2022-12-03T23:19:02.047Z,27.35
2022-12-03T23:21:32.266Z,27.52
2022-12-03T23:24:00.310Z,27.10
2022-12-03T23:26:26.954Z,28.08
2022-12-03T23:28:55.780Z,28.33
2022-12-03T23:31:23.705Z,27.27
2022-12-03T23:33:51.238Z,27.15
2022-12-03T23:36:18.191Z,27.73
2022-12-03T23:38:44.972Z,28.83
2022-12-03T23:41:14.455Z,27.92
2022-12-03T23:43:41.132Z,28.33
2022-12-03T23:46:10.592Z,28.55
2022-12-03T23:48:37.572Z,28.67
2022-12-03T23:51:09.355Z,29.35
2022-12-03T23:53:36.674Z,26.65
2022-12-03T23:56:08.222Z,29.30
2022-12-03T23:58:35.161Z,29.13
